Time;durP1;ratioP1;P1;durP2;ratioP2;P2;SDS_P1;SDS_P2;PMS_P1;PMS_P2;Temp;Humidity;BMP_temperature;BMP_pressure;BME280_temperature;BME280_humidity;BME280_pressure;Samples;Min_cycle;Max_cycle;Signal;HPM_P1;HPM_P2
2023/01/22 00:00:55;;;;;;;19.25;13.00;;;;;;;1.98;92.29;98796.66;4172544;28;20190;-85
2023/01/22 00:02:58;;;;;;;20.38;13.77;;;;;;;1.97;92.91;98787.28;4171441;28;20264;-85
2023/01/22 00:05:01;;;;;;;18.15;12.50;;;;;;;1.98;92.36;98788.97;4152588;28;20215;-85
2023/01/22 00:07:04;;;;;;;17.48;11.95;;;;;;;1.98;92.04;98790.69;4137117;28;20267;-85
2023/01/22 00:09:07;;;;;;;18.77;12.52;;;;;;;1.99;92.54;98788.09;4174179;28;20282;-85
2023/01/22 00:11:11;;;;;;;18.40;13.25;;;;;;;1.97;92.07;98779.56;4157604;28;20229;-85
2023/01/22 00:13:14;;;;;;;16.00;12.18;;;;;;;1.95;92.12;98783.06;4168939;28;20771;-85
2023/01/22 00:15:20;;;;;;;22.80;15.25;;;;;;;1.94;92.13;98783.97;4153825;28;20199;-85
2023/01/22 00:17:22;;;;;;;18.00;12.95;;;;;;;1.94;92.16;98778.81;4167969;28;20241;-85
2023/01/22 00:19:26;;;;;;;19.05;12.57;;;;;;;1.91;92.38;98779.72;4154954;28;20207;-85
2023/01/22 00:21:29;;;;;;;17.67;12.32;;;;;;;1.92;92.32;98776.28;4154174;28;20213;-85
2023/01/22 00:23:32;;;;;;;16.50;11.75;;;;;;;1.91;92.30;98774.56;4155366;28;20198;-85
2023/01/22 00:25:35;;;;;;;22.98;15.60;;;;;;;1.96;92.09;98777.03;4155459;28;20198;-85
2023/01/22 00:27:40;;;;;;;21.60;15.57;;;;;;;1.97;91.96;98778.72;4138546;28;20302;-85
2023/01/22 00:29:43;;;;;;;22.60;14.20;;;;;;;1.98;92.16;98775.28;4156912;28;20261;-85
2023/01/22 00:31:48;;;;;;;18.65;13.57;;;;;;;1.98;91.83;98776.09;4170190;28;20343;-86
2023/01/22 00:33:51;;;;;;;21.55;14.10;;;;;;;2.00;91.95;98779.50;4149316;28;20211;-85
2023/01/22 00:35:54;;;;;;;19.35;12.95;;;;;;;2.01;92.04;98777.78;4139383;28;20211;-85
2023/01/22 00:37:58;;;;;;;18.25;12.95;;;;;;;2.01;91.88;98778.59;4141597;28;20211;-85
2023/01/22 00:40:01;;;;;;;19.95;13.70;;;;;;;2.01;91.59;98783.75;4150913;28;20291;-85
2023/01/22 00:42:04;;;;;;;18.80;13.43;;;;;;;2.03;91.65;98779.44;4137467;28;20597;-85
2023/01/22 00:44:07;;;;;;;19.13;13.45;;;;;;;1.97;91.41;98771.00;4167793;28;20730;-85
2023/01/22 00:46:13;;;;;;;17.60;11.80;;;;;;;1.97;91.75;98773.56;4140485;28;20776;-85
2023/01/22 00:48:17;;;;;;;17.77;12.15;;;;;;;1.98;91.86;98767.56;4167353;28;20206;-85
2023/01/22 00:50:20;;;;;;;18.58;12.55;;;;;;;2.02;91.90;98767.44;4139069;28;20210;-85
2023/01/22 00:52:23;;;;;;;17.75;12.32;;;;;;;2.02;91.79;98776.91;4138884;28;20761;-85
2023/01/22 00:54:26;;;;;;;18.23;11.90;;;;;;;2.01;91.80;98775.19;4139010;28;20832;-85
2023/01/22 00:56:29;;;;;;;15.75;11.48;;;;;;;2.02;91.88;98782.03;4174998;28;20198;-85
2023/01/22 00:58:33;;;;;;;15.75;10.95;;;;;;;2.02;91.90;98776.91;4160213;28;20203;-85
2023/01/22 01:00:36;;;;;;;17.30;12.13;;;;;;;2.02;91.97;98776.91;4173696;28;20886;-85
2023/01/22 01:05:00;;;;;;;19.65;11.90;;;;;;;2.04;91.85;98775.13;4171454;28;20738;-85
2023/01/22 01:07:03;;;;;;;16.92;11.60;;;;;;;2.08;91.71;98772.44;4159573;28;20616;-85
2023/01/22 01:09:06;;;;;;;17.58;11.35;;;;;;;2.05;92.03;98771.69;4171830;28;20308;-85
2023/01/22 01:11:13;;;;;;;15.68;10.95;;;;;;;2.05;92.11;98780.22;4170129;28;20752;-85
2023/01/22 01:13:16;;;;;;;18.63;11.55;;;;;;;2.08;91.79;98772.44;4158417;28;20227;-85
2023/01/22 01:15:20;;;;;;;16.40;11.07;;;;;;;2.09;91.91;98779.28;4154747;28;20203;-85
2023/01/22 01:17:23;;;;;;;18.10;12.20;;;;;;;2.10;91.96;98786.09;4173693;28;20257;-85
2023/01/22 01:19:26;;;;;;;17.48;11.90;;;;;;;2.12;92.14;98786.94;4141393;28;20211;-85
2023/01/22 01:21:31;;;;;;;17.08;12.20;;;;;;;2.12;91.70;98784.34;4148433;28;20218;-85
2023/01/22 01:23:34;;;;;;;20.23;13.50;;;;;;;2.12;91.75;98779.22;4154947;28;20773;-85
2023/01/22 01:25:41;;;;;;;18.10;12.88;;;;;;;2.13;91.38;98772.34;4170266;28;20230;-85
2023/01/22 01:27:44;;;;;;;19.27;13.18;;;;;;;2.13;91.73;98773.16;4141911;28;20299;-85
2023/01/22 01:29:47;;;;;;;17.58;12.80;;;;;;;2.14;91.89;98782.59;4173547;28;20205;-85
2023/01/22 01:31:53;;;;;;;20.98;14.55;;;;;;;2.17;91.42;98768.81;4153393;28;20274;-85
2023/01/22 01:33:56;;;;;;;20.23;13.13;;;;;;;2.15;91.57;98765.41;4160984;28;20207;-85
2023/01/22 01:36:00;;;;;;;20.08;13.30;;;;;;;2.13;91.56;98769.75;4157314;28;20214;-85
2023/01/22 01:38:06;;;;;;;19.13;13.60;;;;;;;2.09;91.48;98769.00;4155715;28;20237;-85
2023/01/22 01:40:11;;;;;;;20.20;13.82;;;;;;;2.10;91.92;98772.41;4153440;28;20246;-85
2023/01/22 01:42:14;;;;;;;20.45;12.85;;;;;;;2.08;92.16;98769.03;4171566;28;20202;-85
2023/01/22 01:44:19;;;;;;;18.48;12.05;;;;;;;2.07;92.25;98769.91;4139541;28;20230;-86
2023/01/22 01:46:24;;;;;;;16.90;12.15;;;;;;;2.08;91.71;98758.75;4158496;28;20211;-85
2023/01/22 01:48:30;;;;;;;16.40;11.82;;;;;;;2.12;91.78;98763.78;4158546;28;20689;-85
2023/01/22 01:50:33;;;;;;;18.67;12.95;;;;;;;2.09;91.92;98761.28;4162346;28;20202;-85
2023/01/22 01:52:36;;;;;;;17.80;12.23;;;;;;;2.07;91.70;98759.63;4142327;28;20232;-85
2023/01/22 01:54:44;;;;;;;17.77;11.85;;;;;;;2.07;91.78;98762.19;4143082;28;20291;-85
2023/01/22 01:56:50;;;;;;;21.55;12.70;;;;;;;2.08;91.92;98766.47;4169985;28;20233;-85
2023/01/22 01:58:55;;;;;;;18.30;12.05;;;;;;;2.08;91.87;98757.00;4157998;28;20230;-85
2023/01/22 02:01:01;;;;;;;20.52;13.27;;;;;;;2.09;91.79;98752.69;4170629;28;20214;-85
2023/01/22 02:03:05;;;;;;;18.83;12.65;;;;;;;2.08;91.68;98756.19;4155573;28;20211;-85
2023/01/22 02:05:09;;;;;;;16.70;11.73;;;;;;;2.05;91.53;98764.81;4168444;28;20578;-85
2023/01/22 02:07:13;;;;;;;17.23;12.93;;;;;;;2.04;91.43;98765.66;4140526;28;20278;-85
2023/01/22 02:09:17;;;;;;;17.55;12.70;;;;;;;2.05;91.66;98766.53;4142860;28;20204;-85
2023/01/22 02:11:23;;;;;;;19.63;13.18;;;;;;;2.07;91.34;98760.47;4174274;28;20210;-85
2023/01/22 02:13:29;;;;;;;19.05;12.70;;;;;;;2.07;91.63;98759.63;4156315;28;20737;-85
2023/01/22 02:15:34;;;;;;;19.23;13.10;;;;;;;2.07;91.49;98765.59;4138000;28;20209;-85
2023/01/22 02:17:39;;;;;;;18.35;13.10;;;;;;;2.08;91.66;98761.31;4173751;28;20233;-85
2023/01/22 02:19:43;;;;;;;18.35;12.45;;;;;;;2.06;91.60;98758.78;4155082;28;20257;-85
2023/01/22 02:21:50;;;;;;;17.27;12.02;;;;;;;2.08;91.86;98758.75;4136502;28;20299;-85
2023/01/22 02:23:55;;;;;;;20.95;13.68;;;;;;;2.09;92.01;98752.69;4157870;28;20209;-85
2023/01/22 02:25:59;;;;;;;19.33;13.15;;;;;;;2.11;92.38;98753.53;4157258;28;20608;-85
2023/01/22 02:28:03;;;;;;;19.75;13.05;;;;;;;2.09;92.33;98753.56;4141751;28;20200;-85
2023/01/22 02:30:08;;;;;;;17.70;12.65;;;;;;;2.07;91.72;98757.88;4169887;28;20711;-85
2023/01/22 02:32:12;;;;;;;20.33;13.23;;;;;;;2.07;92.55;98757.06;4153914;28;20716;-85
2023/01/22 02:34:16;;;;;;;19.80;13.32;;;;;;;2.10;91.91;98767.25;4133936;28;20224;-85
2023/01/22 02:36:22;;;;;;;20.73;12.95;;;;;;;2.15;92.05;98763.72;4137503;28;20203;-85
2023/01/22 02:38:27;;;;;;;21.10;13.63;;;;;;;2.16;91.96;98764.53;4158269;28;20832;-85
2023/01/22 02:40:31;;;;;;;23.02;13.65;;;;;;;2.13;91.61;98769.75;4167972;28;20214;-85
2023/01/22 02:42:35;;;;;;;17.90;12.88;;;;;;;2.11;91.40;98766.38;4138661;28;20780;-85
2023/01/22 02:44:38;;;;;;;17.35;12.43;;;;;;;2.09;91.76;98765.56;4155107;28;20612;-85
2023/01/22 02:46:42;;;;;;;21.25;13.45;;;;;;;2.08;91.99;98764.72;4172305;28;20689;-85
2023/01/22 02:48:47;;;;;;;21.48;13.30;;;;;;;2.07;91.69;98764.75;4140521;28;20204;-85
2023/01/22 02:50:51;;;;;;;17.23;13.00;;;;;;;2.06;91.97;98763.06;4144559;28;20230;-85
2023/01/22 02:52:55;;;;;;;21.60;14.32;;;;;;;2.04;91.68;98760.53;4174297;28;20222;-85
2023/01/22 02:55:00;;;;;;;18.48;12.73;;;;;;;2.02;91.89;98756.31;4172597;28;20808;-85
2023/01/22 02:57:04;;;;;;;19.10;12.90;;;;;;;2.01;91.91;98759.75;4140288;28;20222;-85
2023/01/22 02:59:07;;;;;;;16.63;12.40;;;;;;;2.01;91.53;98759.75;4141975;28;20216;-85
2023/01/22 03:01:19;;;;;;;19.27;13.88;;;;;;;1.99;91.69;98756.41;4146691;28;20203;-85
2023/01/22 03:03:25;;;;;;;20.45;14.15;;;;;;;2.01;91.91;98760.59;4158286;28;20815;-85
2023/01/22 03:05:30;;;;;;;19.80;14.05;;;;;;;2.04;91.79;98762.25;4154934;28;20644;-85
2023/01/22 03:07:43;;;;;;;20.58;13.30;;;;;;;2.08;91.73;98758.75;4156660;28;20207;-85
2023/01/22 03:09:47;;;;;;;20.40;12.80;;;;;;;2.09;91.74;98761.28;4159810;28;20264;-85
2023/01/22 03:11:52;;;;;;;19.48;13.30;;;;;;;2.08;91.74;98762.16;4158863;28;20214;-85
2023/01/22 03:21:17;;;;;;;20.50;13.50;;;;;;;2.05;92.03;98751.94;4153464;28;20213;-85
2023/01/22 03:23:21;;;;;;;19.23;13.15;;;;;;;2.04;91.82;98754.56;4174033;28;20202;-85
2023/01/22 03:25:24;;;;;;;22.23;14.43;;;;;;;2.03;91.90;98752.84;4168161;28;20210;-85
2023/01/22 03:27:31;;;;;;;19.35;13.40;;;;;;;2.02;92.51;98748.63;4140501;28;20200;-85
2023/01/22 03:29:37;;;;;;;20.40;13.57;;;;;;;2.05;92.27;98749.38;4155341;28;20734;-85
2023/01/22 03:31:46;;;;;;;21.33;14.07;;;;;;;2.07;92.46;98752.75;4152548;28;20202;-85
2023/01/22 03:33:50;;;;;;;19.30;12.70;;;;;;;2.08;92.31;98748.47;4151912;28;20222;-85
2023/01/22 03:35:54;;;;;;;21.75;13.98;;;;;;;2.06;92.18;98750.19;4172844;28;20293;-85
2023/01/22 03:37:57;;;;;;;21.27;14.23;;;;;;;2.06;92.08;98756.22;4158061;28;20605;-85
2023/01/22 03:40:01;;;;;;;19.63;13.15;;;;;;;2.04;92.05;98755.38;4154470;28;20203;-85
2023/01/22 03:42:12;;;;;;;20.48;13.43;;;;;;;2.03;92.18;98750.28;4138031;28;20274;-85
2023/01/22 03:44:17;;;;;;;18.65;13.13;;;;;;;2.03;92.16;98752.84;4150779;28;20649;-85
2023/01/22 03:46:21;;;;;;;19.15;13.20;;;;;;;2.06;92.25;98757.91;4134836;28;20745;-85
2023/01/22 03:48:29;;;;;;;22.20;14.20;;;;;;;2.07;92.65;98759.63;4173606;28;20212;-85
2023/01/22 03:50:32;;;;;;;20.88;14.13;;;;;;;2.11;92.18;98762.09;4153935;28;20214;-85
2023/01/22 03:52:36;;;;;;;21.35;14.45;;;;;;;2.13;92.25;98764.63;4155884;28;20205;-84
2023/01/22 03:54:39;;;;;;;22.80;14.30;;;;;;;2.16;92.28;98761.97;4156727;28;20207;-85
2023/01/22 03:56:45;;;;;;;20.80;13.68;;;;;;;2.15;92.22;98758.56;4155399;28;20211;-85
2023/01/22 03:58:57;;;;;;;19.63;12.77;;;;;;;2.19;92.27;98764.47;4138286;28;20247;-85
2023/01/22 04:01:06;;;;;;;22.13;14.43;;;;;;;2.21;92.19;98762.69;4139470;28;20200;-85
2023/01/22 04:03:10;;;;;;;22.42;13.00;;;;;;;2.22;91.96;98756.69;4138742;28;20203;-85
2023/01/22 04:05:16;;;;;;;20.00;12.75;;;;;;;2.22;92.16;98761.81;4138160;28;20757;-85
2023/01/22 04:07:20;;;;;;;23.95;13.48;;;;;;;2.24;91.82;98758.34;4157819;28;20207;-85
2023/01/22 04:09:25;;;;;;;19.83;13.25;;;;;;;2.26;91.98;98764.28;4155751;28;20207;-85
2023/01/22 04:11:28;;;;;;;22.17;14.18;;;;;;;2.18;92.34;98763.63;4132141;28;21006;-85
2023/01/22 04:13:33;;;;;;;19.17;13.27;;;;;;;2.16;91.98;98765.38;4164712;28;20760;-85
2023/01/22 04:15:37;;;;;;;21.15;13.60;;;;;;;2.14;92.17;98761.16;4139987;28;20238;-85
2023/01/22 04:17:51;;;;;;;20.58;13.75;;;;;;;2.12;92.07;98762.91;4156414;28;20741;-85
2023/01/22 04:20:26;;;;;;;21.63;14.32;;;;;;;2.13;91.98;98759.47;4124905;28;20213;-85
2023/01/22 04:22:34;;;;;;;18.77;13.10;;;;;;;2.17;92.31;98755.94;4156332;28;20259;-85
2023/01/22 04:24:38;;;;;;;22.35;14.35;;;;;;;2.19;92.23;98760.16;4147318;28;20934;-85
2023/01/22 04:26:42;;;;;;;24.35;15.77;;;;;;;2.20;91.59;98759.28;4155114;28;20203;-85
2023/01/22 04:28:47;;;;;;;23.05;15.52;;;;;;;2.17;92.13;98758.53;4151516;28;20586;-85
2023/01/22 04:30:52;;;;;;;23.58;15.75;;;;;;;2.17;92.07;98761.09;4151959;28;20308;-86
2023/01/22 04:33:19;;;;;;;25.15;15.65;;;;;;;2.26;92.12;98764.28;4157394;28;20265;-86
2023/01/22 04:35:53;;;;;;;22.77;15.40;;;;;;;2.19;92.17;98761.91;4153996;28;20641;-86
2023/01/22 04:37:57;;;;;;;21.52;14.77;;;;;;;2.16;91.95;98754.25;4170603;28;20203;-85
2023/01/22 04:40:00;;;;;;;24.95;16.95;;;;;;;2.15;92.13;98768.84;4156467;28;20213;-85
2023/01/22 04:42:03;;;;;;;23.95;15.65;;;;;;;2.18;92.49;98767.91;4156348;28;20223;-85
2023/01/22 04:44:07;;;;;;;23.58;15.30;;;;;;;2.19;92.29;98767.03;4156897;28;20211;-86
2023/01/22 04:46:10;;;;;;;23.05;16.20;;;;;;;2.22;92.61;98769.53;4143536;28;20231;-85
2023/01/22 04:48:14;;;;;;;23.38;14.98;;;;;;;2.25;92.59;98774.59;4171166;28;20209;-85
2023/01/22 04:50:22;;;;;;;22.25;14.82;;;;;;;2.26;92.25;98771.16;4155492;28;20206;-85
2023/01/22 04:52:26;;;;;;;22.52;15.10;;;;;;;2.25;91.94;98774.59;4146119;28;20202;-86
2023/01/22 04:54:30;;;;;;;22.42;15.00;;;;;;;2.25;92.13;98774.59;4145156;28;20208;-85
2023/01/22 04:56:33;;;;;;;21.00;13.68;;;;;;;2.24;91.90;98775.47;4144645;28;20215;-85
2023/01/22 04:58:36;;;;;;;24.67;15.98;;;;;;;2.21;92.30;98780.69;4157686;28;20590;-85
2023/01/22 05:00:40;;;;;;;23.60;15.95;;;;;;;2.20;92.20;98779.03;4157872;28;20218;-85
2023/01/22 05:02:44;;;;;;;22.50;14.30;;;;;;;2.21;92.27;98784.13;4141477;28;20621;-85
2023/01/22 05:04:47;;;;;;;23.00;14.80;;;;;;;2.22;92.19;98784.97;4144280;28;20226;-85
2023/01/22 05:06:52;;;;;;;24.60;15.75;;;;;;;2.22;92.12;98780.66;4146092;28;20211;-85
2023/01/22 05:08:55;;;;;;;26.17;17.02;;;;;;;2.26;92.02;98782.28;4162006;28;20218;-85
2023/01/22 05:11:00;;;;;;;26.15;16.25;;;;;;;2.24;92.35;98789.22;4141098;28;20298;-85
2023/01/22 05:13:11;;;;;;;23.75;16.05;;;;;;;2.28;92.12;98792.53;4155874;28;20246;-85
2023/01/22 05:15:17;;;;;;;22.75;15.60;;;;;;;2.30;92.25;98793.34;4156811;28;20265;-85
2023/01/22 05:17:28;;;;;;;25.27;15.70;;;;;;;2.30;92.18;98799.34;4176488;28;20202;-85
2023/01/22 05:19:32;;;;;;;23.92;15.30;;;;;;;2.33;92.12;98803.56;4177521;28;20307;-85
2023/01/22 05:21:35;;;;;;;26.88;15.55;;;;;;;2.28;92.04;98797.69;4152735;28;20766;-85
2023/01/22 05:23:42;;;;;;;27.88;16.15;;;;;;;2.24;92.29;98798.63;4171457;28;20202;-85
2023/01/22 05:25:49;;;;;;;25.80;16.90;;;;;;;2.25;92.48;98801.16;4153682;28;20230;-85
2023/01/22 05:27:57;;;;;;;27.98;15.48;;;;;;;2.25;92.34;98803.72;4156264;28;20207;-85
2023/01/22 05:30:24;;;;;;;23.15;15.05;;;;;;;2.22;92.58;98803.81;4139366;28;20212;-85
2023/01/22 05:32:41;;;;;;;23.55;15.30;;;;;;;2.21;92.57;98807.28;4174039;28;20705;-85
2023/01/22 05:34:44;;;;;;;25.08;16.60;;;;;;;2.21;92.35;98807.28;4134094;28;20222;-85
2023/01/22 05:36:48;;;;;;;24.00;16.05;;;;;;;2.21;92.55;98798.69;4142519;28;20217;-85
2023/01/22 05:38:56;;;;;;;24.00;15.93;;;;;;;2.20;92.65;98800.44;4171908;28;20212;-85
2023/01/22 05:41:01;;;;;;;23.02;15.30;;;;;;;2.19;92.28;98800.47;4155643;28;20717;-85
2023/01/22 05:43:08;;;;;;;26.33;16.77;;;;;;;2.21;92.69;98814.13;4155728;28;20233;-85
2023/01/22 05:45:11;;;;;;;23.73;15.02;;;;;;;2.23;92.87;98812.41;4140992;28;20298;-85
2023/01/22 05:47:43;;;;;;;26.58;16.15;;;;;;;2.20;92.86;98812.47;4150747;28;20644;-85
2023/01/22 05:50:06;;;;;;;26.52;16.55;;;;;;;2.20;92.80;98823.59;4151129;28;24396;-85
2023/01/22 05:52:11;;;;;;;24.23;16.05;;;;;;;2.18;92.89;98821.94;4159484;28;20263;-85
2023/01/22 05:54:16;;;;;;;24.48;15.60;;;;;;;2.18;92.81;98821.94;4175039;28;20218;-85
2023/01/22 05:56:19;;;;;;;29.75;17.90;;;;;;;2.19;92.76;98816.75;4144265;28;20218;-85
2023/01/22 05:58:23;;;;;;;27.10;16.88;;;;;;;2.20;93.21;98822.75;4144782;28;20222;-85
2023/01/22 06:00:26;;;;;;;26.20;15.63;;;;;;;2.20;92.61;98823.59;4138701;28;20215;-85
2023/01/22 06:02:34;;;;;;;27.08;17.17;;;;;;;2.23;92.97;98828.66;4157304;28;20198;-85
2023/01/22 06:04:37;;;;;;;22.10;15.02;;;;;;;2.23;92.65;98828.66;4158184;28;20716;-85
2023/01/22 06:06:51;;;;;;;25.95;16.83;;;;;;;2.23;92.82;98827.81;4143678;28;20282;-85
2023/01/22 06:08:56;;;;;;;27.08;17.45;;;;;;;2.27;92.87;98832.00;4170949;28;20202;-85
2023/01/22 06:11:07;;;;;;;24.33;16.17;;;;;;;2.26;93.03;98838.03;4136669;28;20219;-85
2023/01/22 06:13:10;;;;;;;25.15;15.60;;;;;;;2.27;92.74;98839.72;4139535;28;20236;-85
2023/01/22 06:15:13;;;;;;;25.35;15.68;;;;;;;2.23;92.73;98830.41;4168970;28;20329;-85
2023/01/22 06:17:21;;;;;;;26.48;16.13;;;;;;;2.25;92.92;98836.34;4155010;28;20276;-85
2023/01/22 06:19:31;;;;;;;26.40;17.15;;;;;;;2.26;93.09;98840.63;4134989;28;20243;-85
2023/01/22 06:21:35;;;;;;;26.98;16.35;;;;;;;2.29;93.09;98840.53;4149956;28;20204;-85
2023/01/22 06:23:39;;;;;;;27.23;16.27;;;;;;;2.27;93.18;98844.84;4156918;28;20511;-85
2023/01/22 06:25:43;;;;;;;24.33;15.55;;;;;;;2.23;92.85;98838.94;4138623;28;20207;-85
2023/01/22 06:27:53;;;;;;;23.67;16.33;;;;;;;2.23;92.89;98838.13;4157255;28;20209;-85
2023/01/22 06:29:56;;;;;;;26.27;17.20;;;;;;;2.22;93.67;98844.97;4150695;28;20270;-85
2023/01/22 06:32:00;;;;;;;27.27;18.02;;;;;;;2.23;93.85;98846.66;4156265;28;20195;-85
2023/01/22 06:34:04;;;;;;;27.30;17.88;;;;;;;2.23;93.70;98848.41;4156123;28;20211;-85
2023/01/22 06:36:08;;;;;;;27.23;17.10;;;;;;;2.22;93.94;98850.09;4141477;28;20239;-85
2023/01/22 06:38:12;;;;;;;27.27;16.80;;;;;;;2.24;93.65;98845.78;4171303;28;20321;-85
2023/01/22 06:40:16;;;;;;;27.88;16.52;;;;;;;2.26;93.95;98848.34;4137314;28;20879;-85
2023/01/22 06:42:21;;;;;;;27.40;16.75;;;;;;;2.26;93.43;98848.34;4159302;28;20199;-85
2023/01/22 06:44:27;;;;;;;26.27;16.40;;;;;;;2.27;93.95;98858.59;4154296;28;20226;-85
2023/01/22 06:46:30;;;;;;;29.20;17.77;;;;;;;2.27;93.86;98850.88;4141415;28;20302;-85
2023/01/22 06:48:45;;;;;;;28.10;17.70;;;;;;;2.27;94.46;98852.56;4137679;28;20207;-85
2023/01/22 06:50:51;;;;;;;27.63;16.95;;;;;;;2.29;94.34;98856.81;4154715;28;20628;-85
2023/01/22 06:52:54;;;;;;;26.80;16.33;;;;;;;2.34;94.08;98853.22;4144876;28;20204;-85
2023/01/22 06:54:58;;;;;;;27.23;17.38;;;;;;;2.32;94.04;98858.47;4158960;28;20369;-85
2023/01/22 06:57:01;;;;;;;29.05;17.65;;;;;;;2.35;94.32;98860.06;4157481;28;20203;-86
2023/01/22 06:59:04;;;;;;;28.85;17.15;;;;;;;2.37;94.69;98873.75;4157611;28;20249;-85
2023/01/22 07:01:09;;;;;;;29.00;18.00;;;;;;;2.40;94.56;98867.69;4140062;28;20706;-85
2023/01/22 07:03:13;;;;;;;25.80;16.42;;;;;;;2.41;94.31;98872.81;4157221;28;20210;-85
2023/01/22 07:05:18;;;;;;;26.35;17.38;;;;;;;2.42;94.59;98874.50;4172359;28;20263;-85
2023/01/22 07:07:21;;;;;;;28.27;18.42;;;;;;;2.40;94.40;98873.66;4159490;28;20210;-85
2023/01/22 07:09:24;;;;;;;27.63;17.00;;;;;;;2.44;94.68;98879.59;4156777;28;20207;-85
2023/01/22 07:11:27;;;;;;;26.42;17.05;;;;;;;2.40;94.77;98876.25;4155966;28;20222;-86
2023/01/22 07:13:31;;;;;;;29.33;17.40;;;;;;;2.42;94.52;98881.34;4175917;28;20304;-85
2023/01/22 07:15:34;;;;;;;29.33;17.80;;;;;;;2.46;94.41;98888.13;4165947;28;20218;-85
2023/01/22 07:17:38;;;;;;;29.85;18.70;;;;;;;2.45;94.53;98882.16;4154447;28;20605;-85
2023/01/22 07:19:41;;;;;;;27.63;17.77;;;;;;;2.44;94.26;98888.16;4143613;28;20695;-85
2023/01/22 07:21:44;;;;;;;28.25;17.38;;;;;;;2.46;94.72;98888.97;4169471;28;20686;-85
2023/01/22 07:23:48;;;;;;;28.73;17.67;;;;;;;2.45;94.36;98892.44;4172180;28;20210;-87
2023/01/22 07:25:51;;;;;;;33.15;19.27;;;;;;;2.46;94.64;98893.28;4157706;28;20286;-85
2023/01/22 07:27:58;;;;;;;27.40;18.25;;;;;;;2.48;94.60;98888.94;4172185;28;20213;-86
2023/01/22 07:30:01;;;;;;;30.90;18.20;;;;;;;2.47;94.59;98894.97;4153920;28;20647;-85
2023/01/22 07:32:05;;;;;;;29.00;18.65;;;;;;;2.49;94.10;98896.63;4169000;28;20206;-85
2023/01/22 07:34:10;;;;;;;26.63;16.75;;;;;;;2.53;94.77;98903.38;4172248;28;20297;-85
2023/01/22 07:36:13;;;;;;;32.17;19.27;;;;;;;2.52;94.22;98903.44;4154709;28;20223;-85
2023/01/22 07:38:16;;;;;;;43.00;24.63;;;;;;;2.54;94.45;98901.66;4155842;28;20198;-85
2023/01/22 07:40:19;;;;;;;38.25;22.33;;;;;;;2.56;94.36;98905.06;4172975;28;20316;-85
2023/01/22 07:42:23;;;;;;;37.05;22.00;;;;;;;2.57;94.08;98901.56;4155529;28;20685;-85
2023/01/22 07:44:26;;;;;;;36.22;20.60;;;;;;;2.57;94.42;98906.72;4152107;28;20302;-85
2023/01/22 07:46:29;;;;;;;36.42;21.48;;;;;;;2.58;94.50;98909.25;4153281;28;20709;-85
2023/01/22 07:48:33;;;;;;;37.60;22.67;;;;;;;2.57;94.43;98905.03;4156013;28;20206;-85
2023/01/22 07:50:39;;;;;;;33.53;19.83;;;;;;;2.59;93.98;98905.81;4167718;28;20624;-85
2023/01/22 07:52:42;;;;;;;36.80;22.17;;;;;;;2.61;93.99;98906.63;4167382;28;20246;-85
2023/01/22 07:54:45;;;;;;;34.08;20.33;;;;;;;2.61;94.30;98909.19;4156887;28;20211;-85
2023/01/22 07:56:48;;;;;;;36.70;21.83;;;;;;;2.64;94.08;98910.84;4162819;28;20230;-85
2023/01/22 07:58:51;;;;;;;37.97;22.98;;;;;;;2.65;93.64;98915.97;4151391;28;20195;-85
2023/01/22 08:00:54;;;;;;;33.03;21.33;;;;;;;2.66;93.88;98915.09;4148003;28;20342;-85
2023/01/22 08:02:57;;;;;;;36.80;20.75;;;;;;;2.68;93.92;98918.47;4140453;28;20203;-85
2023/01/22 08:05:01;;;;;;;35.17;21.00;;;;;;;2.68;94.12;98923.63;4150021;28;20785;-85
2023/01/22 08:07:05;;;;;;;51.22;31.38;;;;;;;2.70;94.15;98926.16;4152105;28;20202;-85
2023/01/22 08:09:08;;;;;;;32.25;20.70;;;;;;;2.70;94.09;98926.16;4146840;28;20279;-85
2023/01/22 08:11:12;;;;;;;33.83;19.80;;;;;;;2.70;94.17;98929.56;4173055;28;20210;-85
2023/01/22 08:13:15;;;;;;;32.35;19.80;;;;;;;2.71;94.30;98931.28;4151503;28;20745;-86
2023/01/22 08:15:18;;;;;;;30.65;19.50;;;;;;;2.74;93.76;98932.91;4152008;28;20289;-85
2023/01/22 08:17:21;;;;;;;31.05;19.15;;;;;;;2.76;93.96;98937.16;4145394;28;20214;-85
2023/01/22 08:19:25;;;;;;;29.90;19.45;;;;;;;2.74;93.60;98938.91;4148664;28;20571;-85
2023/01/22 08:21:28;;;;;;;28.90;18.05;;;;;;;2.75;93.74;98940.59;4150700;28;20214;-85
2023/01/22 08:23:32;;;;;;;31.33;19.98;;;;;;;2.75;93.84;98943.16;4151090;28;20683;-85
2023/01/22 08:25:35;;;;;;;29.80;18.42;;;;;;;2.77;93.97;98945.69;4136496;28;20222;-85
2023/01/22 08:27:39;;;;;;;30.73;19.30;;;;;;;2.77;93.81;98948.28;4150217;28;20676;-85
2023/01/22 08:29:42;;;;;;;25.58;16.42;;;;;;;2.78;93.99;98948.25;4170389;28;20205;-85
2023/01/22 08:31:45;;;;;;;30.35;18.65;;;;;;;2.79;93.74;98949.94;4137282;28;20207;-85
2023/01/22 08:33:48;;;;;;;32.25;18.90;;;;;;;2.81;93.86;98955.88;4152968;28;20235;-85
2023/01/22 08:35:52;;;;;;;30.48;18.23;;;;;;;2.82;93.99;98960.16;4167872;28;20227;-86
2023/01/22 08:37:58;;;;;;;29.33;17.65;;;;;;;2.86;93.55;98962.63;4174382;28;20214;-86
2023/01/22 08:40:03;;;;;;;29.52;18.15;;;;;;;2.89;93.76;98956.56;4154473;28;20198;-86
2023/01/22 08:42:06;;;;;;;28.55;18.40;;;;;;;2.94;93.23;98959.88;4136432;28;20342;-86
2023/01/22 08:44:12;;;;;;;30.90;18.67;;;;;;;3.01;93.17;98961.44;4133941;28;20254;-86
2023/01/22 08:46:15;;;;;;;28.15;17.80;;;;;;;3.05;92.93;98960.44;4166004;28;24634;-88
2023/01/22 08:48:19;;;;;;;31.75;19.95;;;;;;;3.09;93.30;98962.06;4155199;28;20234;-86
2023/01/22 08:50:22;;;;;;;29.15;19.58;;;;;;;3.12;92.93;98960.25;4149739;28;20693;-86
2023/01/22 08:52:25;;;;;;;29.02;19.48;;;;;;;3.12;92.66;98962.00;4154390;28;20203;-86
2023/01/22 08:54:28;;;;;;;32.20;20.02;;;;;;;3.13;92.15;98963.66;4158092;28;20207;-86
2023/01/22 08:56:33;;;;;;;33.80;20.13;;;;;;;3.10;92.35;98966.34;4137478;28;20234;-86
2023/01/22 08:58:36;;;;;;;33.83;21.58;;;;;;;3.09;92.64;98970.63;4151092;28;20229;-86
2023/01/22 09:00:40;;;;;;;38.83;21.42;;;;;;;3.10;92.43;98966.34;4155954;28;20249;-85
2023/01/22 09:02:43;;;;;;;35.53;22.52;;;;;;;3.12;92.74;98969.72;4144346;28;20671;-86
2023/01/22 09:04:46;;;;;;;36.75;21.38;;;;;;;3.12;92.09;98969.72;4169474;28;20214;-87
2023/01/22 09:06:49;;;;;;;33.47;21.17;;;;;;;3.10;92.36;98962.03;4169976;28;20207;-85
2023/01/22 09:08:52;;;;;;;35.42;20.10;;;;;;;3.12;92.27;98969.72;4154613;28;20211;-86
2023/01/22 09:10:56;;;;;;;33.85;21.25;;;;;;;3.15;92.67;98970.47;4167244;28;20249;-86
2023/01/22 09:13:01;;;;;;;32.00;21.58;;;;;;;3.15;92.50;98964.50;4150161;28;20245;-86
2023/01/22 09:15:05;;;;;;;33.03;19.58;;;;;;;3.15;92.49;98969.66;4166146;28;20377;-86
2023/01/22 09:17:08;;;;;;;33.25;20.83;;;;;;;3.19;92.38;98971.25;4151083;28;20721;-86
2023/01/22 09:19:11;;;;;;;31.85;20.40;;;;;;;3.24;92.78;98979.72;4138925;28;20235;-86
2023/01/22 09:21:15;;;;;;;32.58;18.67;;;;;;;3.27;92.70;98984.81;4169801;28;20632;-87
2023/01/22 09:23:18;;;;;;;26.65;17.90;;;;;;;3.29;92.39;98984.72;4173520;28;20203;-86
2023/01/22 09:25:21;;;;;;;31.92;19.65;;;;;;;3.33;92.48;98983.75;4153172;28;20606;-87
2023/01/22 09:27:24;;;;;;;29.35;19.02;;;;;;;3.41;92.43;98989.56;4130939;28;20250;-87
2023/01/22 09:29:29;;;;;;;29.98;19.48;;;;;;;3.42;92.04;98991.25;4164716;28;20218;-87
2023/01/22 09:31:33;;;;;;;32.70;19.88;;;;;;;3.43;91.23;98980.06;4130868;28;20239;-88
2023/01/22 09:33:36;;;;;;;31.75;19.90;;;;;;;3.47;91.32;98976.53;4155017;28;20219;-88
2023/01/22 09:35:39;;;;;;;32.33;21.65;;;;;;;3.53;91.56;98988.38;4174771;28;20208;-87
2023/01/22 09:37:42;;;;;;;39.72;25.10;;;;;;;3.56;92.07;98985.72;4157517;28;20222;-89
2023/01/22 09:39:48;;;;;;;40.78;24.58;;;;;;;3.58;91.10;98987.38;4143437;28;20566;-87
2023/01/22 09:41:53;;;;;;;55.13;30.98;;;;;;;3.58;90.90;98989.97;4155266;28;20589;-87
2023/01/22 09:43:59;;;;;;;36.00;22.20;;;;;;;3.57;91.15;98990.00;4160780;28;20206;-87
2023/01/22 09:46:21;;;;;;;37.72;23.10;;;;;;;3.59;91.30;98989.06;4162619;28;20238;-87
2023/01/22 09:48:36;;;;;;;38.40;23.15;;;;;;;3.64;91.15;98996.66;4157515;28;20204;-87
2023/01/22 09:50:41;;;;;;;37.42;22.05;;;;;;;3.67;91.14;99002.63;4157225;28;20210;-87